sensor_id;sensor_type;location;lat;lon;timestamp;pressure;altitude;pressure_sealevel;temperature;humidity
57801;BME280;43627;42.728;23.256;2022-10-17T00:00:06;96287.66;;;6.33;100.00
57801;BME280;43627;42.728;23.256;2022-10-17T00:02:33;96283.91;;;6.19;100.00
57801;BME280;43627;42.728;23.256;2022-10-17T00:05:00;96275.03;;;6.19;100.00
57801;BME280;43627;42.728;23.256;2022-10-17T00:07:26;96291.53;;;6.35;100.00
57801;BME280;43627;42.728;23.256;2022-10-17T00:09:54;96291.47;;;6.39;100.00
57801;BME280;43627;42.728;23.256;2022-10-17T00:12:21;96290.78;;;6.31;100.00
57801;BME280;43627;42.728;23.256;2022-10-17T00:14:47;96298.44;;;6.40;100.00
57801;BME280;43627;42.728;23.256;2022-10-17T00:17:14;96283.16;;;6.19;100.00
57801;BME280;43627;42.728;23.256;2022-10-17T00:19:41;96298.44;;;6.40;100.00
57801;BME280;43627;42.728;23.256;2022-10-17T00:22:08;96304.16;;;6.49;100.00
57801;BME280;43627;42.728;23.256;2022-10-17T00:24:35;96296.53;;;6.37;100.00
57801;BME280;43627;42.728;23.256;2022-10-17T00:27:01;96298.53;;;6.29;100.00
57801;BME280;43627;42.728;23.256;2022-10-17T00:29:29;96290.16;;;6.16;100.00
57801;BME280;43627;42.728;23.256;2022-10-17T00:31:56;96287.13;;;6.07;100.00
57801;BME280;43627;42.728;23.256;2022-10-17T00:34:23;96297.72;;;5.84;100.00
57801;BME280;43627;42.728;23.256;2022-10-17T00:36:50;96307.94;;;5.62;100.00
57801;BME280;43627;42.728;23.256;2022-10-17T00:39:17;96303.03;;;5.42;100.00
57801;BME280;43627;42.728;23.256;2022-10-17T00:41:43;96303.13;;;5.21;100.00
57801;BME280;43627;42.728;23.256;2022-10-17T00:46:59;96295.91;;;4.97;100.00
57801;BME280;43627;42.728;23.256;2022-10-17T00:49:27;96317.09;;;5.02;100.00
57801;BME280;43627;42.728;23.256;2022-10-17T00:51:59;96304.78;;;4.90;100.00
57801;BME280;43627;42.728;23.256;2022-10-17T00:54:33;96307.84;;;4.99;100.00
57801;BME280;43627;42.728;23.256;2022-10-17T00:57:01;96312.91;;;4.94;100.00
57801;BME280;43627;42.728;23.256;2022-10-17T00:59:32;96305.25;;;4.74;100.00
57801;BME280;43627;42.728;23.256;2022-10-17T01:02:03;96313.66;;;4.98;100.00
57801;BME280;43627;42.728;23.256;2022-10-17T01:04:30;96315.19;;;4.99;100.00
57801;BME280;43627;42.728;23.256;2022-10-17T01:06:57;96314.84;;;4.93;100.00
57801;BME280;43627;42.728;23.256;2022-10-17T01:09:24;96315.56;;;5.04;100.00
57801;BME280;43627;42.728;23.256;2022-10-17T01:20:59;96316.25;;;5.19;100.00
57801;BME280;43627;42.728;23.256;2022-10-17T01:29:56;96313.97;;;5.10;100.00
57801;BME280;43627;42.728;23.256;2022-10-17T01:32:36;96312.41;;;5.16;100.00
57801;BME280;43627;42.728;23.256;2022-10-17T01:35:09;96309.72;;;5.16;100.00
57801;BME280;43627;42.728;23.256;2022-10-17T01:37:47;96314.31;;;5.27;100.00
57801;BME280;43627;42.728;23.256;2022-10-17T01:40:19;96310.44;;;5.31;100.00
57801;BME280;43627;42.728;23.256;2022-10-17T01:43:36;96322.34;;;5.41;100.00
57801;BME280;43627;42.728;23.256;2022-10-17T01:46:22;96320.78;;;5.43;100.00
57801;BME280;43627;42.728;23.256;2022-10-17T01:48:51;96321.16;;;5.45;100.00
57801;BME280;43627;42.728;23.256;2022-10-17T01:51:22;96324.19;;;5.55;100.00
57801;BME280;43627;42.728;23.256;2022-10-17T01:53:57;96328.47;;;5.52;100.00
57801;BME280;43627;42.728;23.256;2022-10-17T01:56:28;96320.34;;;5.52;100.00
57801;BME280;43627;42.728;23.256;2022-10-17T01:59:00;96314.56;;;5.50;100.00
57801;BME280;43627;42.728;23.256;2022-10-17T02:01:29;96328.44;;;5.59;100.00
57801;BME280;43627;42.728;23.256;2022-10-17T02:03:58;96310.31;;;5.53;100.00
57801;BME280;43627;42.728;23.256;2022-10-17T02:06:26;96328.44;;;5.59;100.00
57801;BME280;43627;42.728;23.256;2022-10-17T02:08:52;96328.03;;;5.57;100.00
57801;BME280;43627;42.728;23.256;2022-10-17T02:11:24;96314.91;;;5.59;100.00
57801;BME280;43627;42.728;23.256;2022-10-17T02:22:44;96322.78;;;5.29;100.00
57801;BME280;43627;42.728;23.256;2022-10-17T02:27:47;96344.41;;;5.32;100.00
57801;BME280;43627;42.728;23.256;2022-10-17T02:30:38;96347.53;;;5.31;100.00
57801;BME280;43627;42.728;23.256;2022-10-17T02:33:15;96338.31;;;5.14;100.00
57801;BME280;43627;42.728;23.256;2022-10-17T02:35:47;96346.50;;;4.96;100.00
57801;BME280;43627;42.728;23.256;2022-10-17T02:38:17;96337.25;;;4.86;100.00
57801;BME280;43627;42.728;23.256;2022-10-17T02:40:45;96349.59;;;4.95;100.00
57801;BME280;43627;42.728;23.256;2022-10-17T02:43:13;96342.25;;;4.95;100.00
57801;BME280;43627;42.728;23.256;2022-10-17T02:45:40;96349.91;;;5.07;100.00
57801;BME280;43627;42.728;23.256;2022-10-17T02:48:11;96342.22;;;4.99;100.00
57801;BME280;43627;42.728;23.256;2022-10-17T02:53:13;96343.75;;;5.00;100.00
57801;BME280;43627;42.728;23.256;2022-10-17T02:55:49;96340.66;;;5.01;100.00
57801;BME280;43627;42.728;23.256;2022-10-17T02:58:24;96347.63;;;5.06;100.00
57801;BME280;43627;42.728;23.256;2022-10-17T03:00:52;96359.56;;;5.08;100.00
57801;BME280;43627;42.728;23.256;2022-10-17T03:05:45;96379.25;;;5.09;100.00
57801;BME280;43627;42.728;23.256;2022-10-17T03:08:12;96368.47;;;5.05;100.00
57801;BME280;43627;42.728;23.256;2022-10-17T03:10:39;96370.00;;;5.06;100.00
57801;BME280;43627;42.728;23.256;2022-10-17T03:13:05;96376.94;;;5.11;100.00
57801;BME280;43627;42.728;23.256;2022-10-17T03:15:32;96375.78;;;5.08;100.00
57801;BME280;43627;42.728;23.256;2022-10-17T03:17:59;96384.69;;;5.05;100.00
57801;BME280;43627;42.728;23.256;2022-10-17T03:20:26;96364.22;;;5.04;100.00
57801;BME280;43627;42.728;23.256;2022-10-17T03:22:52;96375.06;;;4.97;100.00
57801;BME280;43627;42.728;23.256;2022-10-17T03:25:19;96366.19;;;4.97;100.00
57801;BME280;43627;42.728;23.256;2022-10-17T03:27:46;96338.78;;;4.91;100.00
57801;BME280;43627;42.728;23.256;2022-10-17T03:30:13;96370.41;;;5.01;100.00
57801;BME280;43627;42.728;23.256;2022-10-17T03:32:39;96375.03;;;5.04;100.00
57801;BME280;43627;42.728;23.256;2022-10-17T03:35:07;96387.03;;;5.03;100.00
57801;BME280;43627;42.728;23.256;2022-10-17T03:37:40;96376.59;;;4.91;100.00
57801;BME280;43627;42.728;23.256;2022-10-17T03:40:07;96385.13;;;4.86;100.00
57801;BME280;43627;42.728;23.256;2022-10-17T03:42:33;96376.66;;;4.77;100.00
57801;BME280;43627;42.728;23.256;2022-10-17T03:45:00;96376.28;;;4.61;100.00
57801;BME280;43627;42.728;23.256;2022-10-17T03:47:27;96387.09;;;4.61;100.00
57801;BME280;43627;42.728;23.256;2022-10-17T03:49:54;96386.72;;;4.41;100.00
57801;BME280;43627;42.728;23.256;2022-10-17T03:52:21;96398.31;;;4.27;100.00
57801;BME280;43627;42.728;23.256;2022-10-17T03:54:49;96402.56;;;4.28;100.00
57801;BME280;43627;42.728;23.256;2022-10-17T03:57:17;96397.91;;;4.21;100.00
57801;BME280;43627;42.728;23.256;2022-10-17T03:59:44;96388.63;;;4.05;100.00
57801;BME280;43627;42.728;23.256;2022-10-17T04:02:11;96376.69;;;3.91;100.00
57801;BME280;43627;42.728;23.256;2022-10-17T04:04:38;96403.66;;;3.95;100.00
57801;BME280;43627;42.728;23.256;2022-10-17T04:07:05;96397.09;;;3.96;100.00
57801;BME280;43627;42.728;23.256;2022-10-17T04:09:32;96402.50;;;3.92;100.00
57801;BME280;43627;42.728;23.256;2022-10-17T04:11:58;96405.59;;;3.91;100.00
57801;BME280;43627;42.728;23.256;2022-10-17T04:14:25;96406.38;;;3.98;100.00
57801;BME280;43627;42.728;23.256;2022-10-17T04:16:52;96406.75;;;3.97;100.00
57801;BME280;43627;42.728;23.256;2022-10-17T04:19:19;96414.09;;;4.04;100.00
57801;BME280;43627;42.728;23.256;2022-10-17T04:21:46;96411.41;;;4.00;100.00
57801;BME280;43627;42.728;23.256;2022-10-17T04:24:13;96404.47;;;3.99;100.00
57801;BME280;43627;42.728;23.256;2022-10-17T04:26:40;96402.13;;;3.97;100.00
57801;BME280;43627;42.728;23.256;2022-10-17T04:29:07;96407.94;;;4.10;100.00
57801;BME280;43627;42.728;23.256;2022-10-17T04:31:33;96406.03;;;4.18;100.00
57801;BME280;43627;42.728;23.256;2022-10-17T04:34:00;96415.63;;;4.15;100.00
57801;BME280;43627;42.728;23.256;2022-10-17T04:36:27;96415.63;;;4.15;100.00
57801;BME280;43627;42.728;23.256;2022-10-17T04:38:54;96418.72;;;4.14;100.00
57801;BME280;43627;42.728;23.256;2022-10-17T04:41:21;96428.38;;;4.15;100.00
57801;BME280;43627;42.728;23.256;2022-10-17T04:43:48;96409.84;;;4.06;100.00
57801;BME280;43627;42.728;23.256;2022-10-17T04:46:17;96412.16;;;4.15;100.00
57801;BME280;43627;42.728;23.256;2022-10-17T04:48:43;96417.94;;;4.17;100.00
57801;BME280;43627;42.728;23.256;2022-10-17T04:51:13;96400.22;;;4.01;100.00
57801;BME280;43627;42.728;23.256;2022-10-17T04:53:41;96420.28;;;4.18;100.00
57801;BME280;43627;42.728;23.256;2022-10-17T04:56:14;96431.44;;;4.17;100.00
57801;BME280;43627;42.728;23.256;2022-10-17T04:58:42;96422.59;;;4.13;100.00
57801;BME280;43627;42.728;23.256;2022-10-17T05:01:13;96436.47;;;4.11;100.00
57801;BME280;43627;42.728;23.256;2022-10-17T05:03:44;96382.84;;;3.85;100.00
57801;BME280;43627;42.728;23.256;2022-10-17T05:06:15;96425.72;;;4.36;100.00
57801;BME280;43627;42.728;23.256;2022-10-17T05:08:42;96429.13;;;4.83;100.00
57801;BME280;43627;42.728;23.256;2022-10-17T05:11:25;96432.13;;;5.31;100.00
57801;BME280;43627;42.728;23.256;2022-10-17T05:13:54;96435.38;;;5.82;100.00
57801;BME280;43627;42.728;23.256;2022-10-17T05:16:21;96444.56;;;6.61;100.00
57801;BME280;43627;42.728;23.256;2022-10-17T05:18:50;96429.38;;;7.46;100.00
57801;BME280;43627;42.728;23.256;2022-10-17T05:21:18;96438.44;;;8.54;100.00
57801;BME280;43627;42.728;23.256;2022-10-17T05:23:45;96439.19;;;9.45;100.00
57801;BME280;43627;42.728;23.256;2022-10-17T05:26:12;96447.88;;;10.16;100.00
57801;BME280;43627;42.728;23.256;2022-10-17T05:28:39;96444.38;;;10.68;89.81
57801;BME280;43627;42.728;23.256;2022-10-17T05:31:07;96458.06;;;11.13;75.76
57801;BME280;43627;42.728;23.256;2022-10-17T05:33:35;96464.00;;;11.24;90.81
57801;BME280;43627;42.728;23.256;2022-10-17T05:36:03;96451.53;;;12.10;73.92
57801;BME280;43627;42.728;23.256;2022-10-17T05:38:30;96448.28;;;12.53;63.63
57801;BME280;43627;42.728;23.256;2022-10-17T05:40:58;96455.72;;;13.13;62.12
57801;BME280;43627;42.728;23.256;2022-10-17T05:43:25;96467.34;;;13.52;59.13
57801;BME280;43627;42.728;23.256;2022-10-17T05:45:53;96467.81;;;13.72;57.97
57801;BME280;43627;42.728;23.256;2022-10-17T05:48:21;96454.88;;;13.72;55.41
57801;BME280;43627;42.728;23.256;2022-10-17T05:50:48;96475.41;;;13.68;60.27
57801;BME280;43627;42.728;23.256;2022-10-17T05:53:15;96485.09;;;13.60;56.65
57801;BME280;43627;42.728;23.256;2022-10-17T05:55:42;96485.06;;;13.38;55.18
57801;BME280;43627;42.728;23.256;2022-10-17T05:58:09;96470.13;;;12.92;57.55
57801;BME280;43627;42.728;23.256;2022-10-17T06:00:47;96477.34;;;12.85;61.17
57801;BME280;43627;42.728;23.256;2022-10-17T06:03:14;96476.16;;;12.74;60.23
57801;BME280;43627;42.728;23.256;2022-10-17T06:05:41;96498.81;;;12.49;58.18
57801;BME280;43627;42.728;23.256;2022-10-17T06:08:08;96485.81;;;11.86;60.07
57801;BME280;43627;42.728;23.256;2022-10-17T06:10:34;96503.03;;;11.54;64.87
57801;BME280;43627;42.728;23.256;2022-10-17T06:13:01;96494.75;;;10.96;68.59
57801;BME280;43627;42.728;23.256;2022-10-17T06:15:28;96500.38;;;10.72;72.20
57801;BME280;43627;42.728;23.256;2022-10-17T06:17:54;96500.03;;;10.54;72.30
57801;BME280;43627;42.728;23.256;2022-10-17T06:20:21;96495.91;;;10.46;77.12
57801;BME280;43627;42.728;23.256;2022-10-17T06:22:48;96498.44;;;10.37;79.26
57801;BME280;43627;42.728;23.256;2022-10-17T06:25:15;96509.56;;;10.46;83.58
57801;BME280;43627;42.728;23.256;2022-10-17T06:27:41;96508.06;;;10.41;78.01
57801;BME280;43627;42.728;23.256;2022-10-17T06:30:08;96504.97;;;10.23;82.29
57801;BME280;43627;42.728;23.256;2022-10-17T06:32:35;96509.66;;;10.22;85.12
57801;BME280;43627;42.728;23.256;2022-10-17T06:35:02;96497.00;;;9.72;82.93
57801;BME280;43627;42.728;23.256;2022-10-17T06:37:32;96519.56;;;9.73;83.88
57801;BME280;43627;42.728;23.256;2022-10-17T06:40:03;96515.91;;;9.16;88.95
57801;BME280;43627;42.728;23.256;2022-10-17T06:42:29;96523.34;;;8.89;94.43
57801;BME280;43627;42.728;23.256;2022-10-17T06:44:56;96516.75;;;9.13;93.12
57801;BME280;43627;42.728;23.256;2022-10-17T06:47:23;96487.16;;;9.39;88.80
57801;BME280;43627;42.728;23.256;2022-10-17T06:49:49;96522.66;;;9.32;91.78
57801;BME280;43627;42.728;23.256;2022-10-17T06:52:16;96523.56;;;9.45;91.73
57801;BME280;43627;42.728;23.256;2022-10-17T06:54:43;96522.31;;;9.30;95.97
57801;BME280;43627;42.728;23.256;2022-10-17T06:57:10;96518.16;;;9.22;98.54
57801;BME280;43627;42.728;23.256;2022-10-17T06:59:37;96525.84;;;9.70;93.22
57801;BME280;43627;42.728;23.256;2022-10-17T07:02:04;96521.31;;;10.43;85.27
57801;BME280;43627;42.728;23.256;2022-10-17T07:04:31;96526.91;;;10.72;82.40
57801;BME280;43627;42.728;23.256;2022-10-17T07:06:58;96526.47;;;11.06;77.50
57801;BME280;43627;42.728;23.256;2022-10-17T07:09:29;96532.28;;;11.08;78.88
57801;BME280;43627;42.728;23.256;2022-10-17T07:11:56;96523.72;;;10.57;81.38
57801;BME280;43627;42.728;23.256;2022-10-17T07:14:23;96527.97;;;10.22;87.68
57801;BME280;43627;42.728;23.256;2022-10-17T07:16:57;96514.47;;;10.35;83.61
57801;BME280;43627;42.728;23.256;2022-10-17T07:19:24;96516.78;;;10.36;83.73
57801;BME280;43627;42.728;23.256;2022-10-17T07:21:53;96518.22;;;10.41;89.34
57801;BME280;43627;42.728;23.256;2022-10-17T07:24:20;96519.56;;;10.33;87.70
57801;BME280;43627;42.728;23.256;2022-10-17T07:26:46;96516.72;;;10.00;90.64
57801;BME280;43627;42.728;23.256;2022-10-17T07:29:13;96523.41;;;10.15;93.49
57801;BME280;43627;42.728;23.256;2022-10-17T07:31:40;96530.97;;;10.27;89.43
57801;BME280;43627;42.728;23.256;2022-10-17T07:34:07;96527.53;;;10.43;85.97
57801;BME280;43627;42.728;23.256;2022-10-17T07:36:33;96529.44;;;10.07;90.99
57801;BME280;43627;42.728;23.256;2022-10-17T07:39:00;96531.75;;;10.28;87.24
57801;BME280;43627;42.728;23.256;2022-10-17T07:41:27;96527.59;;;10.40;86.18
57801;BME280;43627;42.728;23.256;2022-10-17T07:43:54;96536.50;;;10.60;85.59
57801;BME280;43627;42.728;23.256;2022-10-17T07:46:21;96533.94;;;10.69;84.52
57801;BME280;43627;42.728;23.256;2022-10-17T07:48:47;96532.75;;;10.54;85.73
57801;BME280;43627;42.728;23.256;2022-10-17T07:51:14;96535.19;;;10.84;87.03
57801;BME280;43627;42.728;23.256;2022-10-17T07:53:42;96532.97;;;11.12;82.82
57801;BME280;43627;42.728;23.256;2022-10-17T07:56:14;96518.03;;;11.16;82.58
57801;BME280;43627;42.728;23.256;2022-10-17T07:58:41;96516.66;;;11.25;84.78
57801;BME280;43627;42.728;23.256;2022-10-17T08:01:09;96528.88;;;11.65;81.33
57801;BME280;43627;42.728;23.256;2022-10-17T08:03:43;96531.34;;;12.05;75.96
57801;BME280;43627;42.728;23.256;2022-10-17T08:06:10;96527.91;;;12.30;73.85
57801;BME280;43627;42.728;23.256;2022-10-17T08:08:37;96526.19;;;11.94;76.22
57801;BME280;43627;42.728;23.256;2022-10-17T08:11:07;96532.69;;;12.13;72.28
57801;BME280;43627;42.728;23.256;2022-10-17T08:13:35;96525.66;;;12.54;70.16
57801;BME280;43627;42.728;23.256;2022-10-17T08:16:06;96512.63;;;12.58;67.70
57801;BME280;43627;42.728;23.256;2022-10-17T08:18:34;96528.94;;;12.62;67.13
57801;BME280;43627;42.728;23.256;2022-10-17T08:21:03;96508.31;;;12.32;66.17
57801;BME280;43627;42.728;23.256;2022-10-17T08:23:34;96511.97;;;12.41;66.92
57801;BME280;43627;42.728;23.256;2022-10-17T08:26:04;96513.81;;;12.82;65.88
57801;BME280;43627;42.728;23.256;2022-10-17T08:28:34;96512.59;;;13.09;63.91
57801;BME280;43627;42.728;23.256;2022-10-17T08:31:12;96507.22;;;13.31;62.17
57801;BME280;43627;42.728;23.256;2022-10-17T08:33:40;96509.72;;;13.25;61.23
57801;BME280;43627;42.728;23.256;2022-10-17T08:36:09;96507.69;;;13.51;61.62
57801;BME280;43627;42.728;23.256;2022-10-17T08:38:38;96513.47;;;13.88;58.56
57801;BME280;43627;42.728;23.256;2022-10-17T08:41:48;96506.16;;;14.07;57.22
57801;BME280;43627;42.728;23.256;2022-10-17T08:46:46;96496.56;;;14.33;54.24
57801;BME280;43627;42.728;23.256;2022-10-17T08:49:30;96485.75;;;14.39;53.95
57801;BME280;43627;42.728;23.256;2022-10-17T08:52:09;96504.75;;;14.55;52.67
57801;BME280;43627;42.728;23.256;2022-10-17T08:54:42;96492.38;;;14.81;52.93
57801;BME280;43627;42.728;23.256;2022-10-17T08:57:15;96511.97;;;15.11;52.35
57801;BME280;43627;42.728;23.256;2022-10-17T08:59:44;96511.41;;;15.34;51.49
57801;BME280;43627;42.728;23.256;2022-10-17T09:02:36;96507.06;;;15.64;49.92
57801;BME280;43627;42.728;23.256;2022-10-17T09:10:59;96515.72;;;16.18;47.75
57801;BME280;43627;42.728;23.256;2022-10-17T09:21:42;96513.63;;;16.64;44.08
57801;BME280;43627;42.728;23.256;2022-10-17T09:24:21;96503.84;;;16.72;43.86
57801;BME280;43627;42.728;23.256;2022-10-17T09:26:51;96501.03;;;16.81;43.35
57801;BME280;43627;42.728;23.256;2022-10-17T09:29:22;96508.28;;;16.70;43.72
57801;BME280;43627;42.728;23.256;2022-10-17T09:32:02;96510.56;;;16.71;42.29
57801;BME280;43627;42.728;23.256;2022-10-17T09:34:31;96504.91;;;16.66;41.31
57801;BME280;43627;42.728;23.256;2022-10-17T09:36:59;96499.06;;;16.82;41.19
57801;BME280;43627;42.728;23.256;2022-10-17T09:39:28;96509.66;;;17.07;40.49
57801;BME280;43627;42.728;23.256;2022-10-17T09:41:59;96488.13;;;17.21;39.80
57801;BME280;43627;42.728;23.256;2022-10-17T09:44:33;96488.97;;;17.36;38.18
57801;BME280;43627;42.728;23.256;2022-10-17T09:47:27;96488.94;;;17.12;38.08
57801;BME280;43627;42.728;23.256;2022-10-17T09:49:55;96461.16;;;16.68;38.80
57801;BME280;43627;42.728;23.256;2022-10-17T09:52:34;96465.44;;;17.02;38.02
57801;BME280;43627;42.728;23.256;2022-10-17T09:55:05;96493.34;;;17.19;37.83
57801;BME280;43627;42.728;23.256;2022-10-17T09:57:51;96485.72;;;17.37;37.71
57801;BME280;43627;42.728;23.256;2022-10-17T10:00:22;96476.28;;;17.53;37.93
57801;BME280;43627;42.728;23.256;2022-10-17T10:02:49;96430.22;;;16.73;36.47
57801;BME280;43627;42.728;23.256;2022-10-17T10:05:18;96444.44;;;17.04;36.64
57801;BME280;43627;42.728;23.256;2022-10-17T10:08:12;96409.28;;;16.66;35.29
57801;BME280;43627;42.728;23.256;2022-10-17T10:10:40;96452.00;;;17.19;35.58
57801;BME280;43627;42.728;23.256;2022-10-17T10:15:41;96470.66;;;17.00;34.26
57801;BME280;43627;42.728;23.256;2022-10-17T10:18:27;96466.53;;;17.43;34.58
57801;BME280;43627;42.728;23.256;2022-10-17T10:23:37;96400.88;;;16.94;34.43
57801;BME280;43627;42.728;23.256;2022-10-17T10:26:17;96460.78;;;17.32;32.70
57801;BME280;43627;42.728;23.256;2022-10-17T10:29:01;96428.59;;;17.14;33.56
57801;BME280;43627;42.728;23.256;2022-10-17T10:31:37;96454.88;;;17.48;33.64
57801;BME280;43627;42.728;23.256;2022-10-17T10:34:31;96457.41;;;17.37;30.60
57801;BME280;43627;42.728;23.256;2022-10-17T10:37:00;96448.38;;;17.12;30.58
57801;BME280;43627;42.728;23.256;2022-10-17T10:39:44;96453.41;;;17.14;31.85
57801;BME280;43627;42.728;23.256;2022-10-17T10:42:33;96440.88;;;17.13;31.38
57801;BME280;43627;42.728;23.256;2022-10-17T10:45:21;96439.56;;;17.62;29.70
57801;BME280;43627;42.728;23.256;2022-10-17T10:48:19;96435.28;;;17.85;30.87
57801;BME280;43627;42.728;23.256;2022-10-17T10:50:54;96425.47;;;18.13;30.94
57801;BME280;43627;42.728;23.256;2022-10-17T10:53:52;96422.53;;;18.32;30.70
57801;BME280;43627;42.728;23.256;2022-10-17T10:56:22;96423.47;;;18.14;30.43
57801;BME280;43627;42.728;23.256;2022-10-17T11:01:26;96421.59;;;18.20;31.17
57801;BME280;43627;42.728;23.256;2022-10-17T11:04:01;96403.56;;;18.24;30.40
57801;BME280;43627;42.728;23.256;2022-10-17T11:06:35;96412.66;;;18.10;30.20
57801;BME280;43627;42.728;23.256;2022-10-17T11:14:52;96418.72;;;18.29;30.70
57801;BME280;43627;42.728;23.256;2022-10-17T11:17:44;96421.09;;;18.21;28.60
57801;BME280;43627;42.728;23.256;2022-10-17T11:20:26;96417.97;;;17.84;29.26
57801;BME280;43627;42.728;23.256;2022-10-17T11:23:15;96409.75;;;17.90;29.58
57801;BME280;43627;42.728;23.256;2022-10-17T11:25:47;96404.06;;;17.79;30.46
57801;BME280;43627;42.728;23.256;2022-10-17T11:28:17;96400.56;;;17.93;30.17
57801;BME280;43627;42.728;23.256;2022-10-17T11:34:00;96412.41;;;18.43;30.42
57801;BME280;43627;42.728;23.256;2022-10-17T11:36:33;96401.69;;;18.16;30.86
57801;BME280;43627;42.728;23.256;2022-10-17T11:39:17;96392.84;;;18.12;31.18
57801;BME280;43627;42.728;23.256;2022-10-17T11:41:50;96412.88;;;18.42;31.60
57801;BME280;43627;42.728;23.256;2022-10-17T11:44:38;96393.13;;;17.99;32.09
57801;BME280;43627;42.728;23.256;2022-10-17T11:47:38;96401.97;;;18.03;32.25
57801;BME280;43627;42.728;23.256;2022-10-17T11:50:21;96376.84;;;18.16;31.55
57801;BME280;43627;42.728;23.256;2022-10-17T11:53:15;96393.94;;;18.49;30.94
57801;BME280;43627;42.728;23.256;2022-10-17T11:55:43;96388.41;;;18.49;31.01
57801;BME280;43627;42.728;23.256;2022-10-17T12:06:58;96379.44;;;18.69;30.87
57801;BME280;43627;42.728;23.256;2022-10-17T12:09:42;96380.59;;;18.83;30.04
57801;BME280;43627;42.728;23.256;2022-10-17T12:12:24;96383.44;;;18.89;30.14
57801;BME280;43627;42.728;23.256;2022-10-17T12:14:53;96365.97;;;18.97;29.54
57801;BME280;43627;42.728;23.256;2022-10-17T12:17:28;96382.81;;;19.20;29.46
57801;BME280;43627;42.728;23.256;2022-10-17T12:22:51;96386.88;;;18.83;30.51
57801;BME280;43627;42.728;23.256;2022-10-17T12:25:22;96379.22;;;18.93;30.79
57801;BME280;43627;42.728;23.256;2022-10-17T12:30:32;96372.44;;;18.94;30.84
57801;BME280;43627;42.728;23.256;2022-10-17T12:33:02;96370.16;;;19.13;30.38
57801;BME280;43627;42.728;23.256;2022-10-17T12:35:34;96372.19;;;19.12;30.29
57801;BME280;43627;42.728;23.256;2022-10-17T12:38:03;96370.38;;;19.30;29.03
57801;BME280;43627;42.728;23.256;2022-10-17T12:45:52;96362.34;;;19.32;29.70
57801;BME280;43627;42.728;23.256;2022-10-17T12:51:15;96357.66;;;19.18;30.33
57801;BME280;43627;42.728;23.256;2022-10-17T12:54:09;96355.19;;;18.79;30.75
57801;BME280;43627;42.728;23.256;2022-10-17T12:56:47;96368.44;;;18.75;30.58
57801;BME280;43627;42.728;23.256;2022-10-17T12:59:24;96375.56;;;18.81;30.45
57801;BME280;43627;42.728;23.256;2022-10-17T13:01:54;96359.38;;;18.74;30.88
57801;BME280;43627;42.728;23.256;2022-10-17T13:04:22;96351.81;;;18.90;30.72
57801;BME280;43627;42.728;23.256;2022-10-17T13:06:54;96346.75;;;18.88;30.21
57801;BME280;43627;42.728;23.256;2022-10-17T13:09:30;96344.91;;;19.00;30.43
57801;BME280;43627;42.728;23.256;2022-10-17T13:12:01;96358.16;;;19.16;30.01
57801;BME280;43627;42.728;23.256;2022-10-17T13:14:31;96363.56;;;19.05;29.95
57801;BME280;43627;42.728;23.256;2022-10-17T13:17:03;96363.06;;;19.06;29.76
57801;BME280;43627;42.728;23.256;2022-10-17T13:19:42;96352.44;;;18.99;29.89
57801;BME280;43627;42.728;23.256;2022-10-17T13:22:14;96353.81;;;19.09;29.54
57801;BME280;43627;42.728;23.256;2022-10-17T13:24:42;96354.97;;;19.23;29.60
57801;BME280;43627;42.728;23.256;2022-10-17T13:27:38;96353.78;;;19.30;29.17
57801;BME280;43627;42.728;23.256;2022-10-17T13:30:37;96354.47;;;19.04;29.48
57801;BME280;43627;42.728;23.256;2022-10-17T13:33:20;96357.91;;;19.14;29.91
57801;BME280;43627;42.728;23.256;2022-10-17T13:35:53;96354.13;;;19.37;29.53
57801;BME280;43627;42.728;23.256;2022-10-17T13:38:28;96349.34;;;19.58;29.17
57801;BME280;43627;42.728;23.256;2022-10-17T13:40:55;96342.31;;;19.37;29.61
57801;BME280;43627;42.728;23.256;2022-10-17T13:43:42;96354.50;;;19.51;29.20
57801;BME280;43627;42.728;23.256;2022-10-17T13:46:23;96354.81;;;19.32;29.57
57801;BME280;43627;42.728;23.256;2022-10-17T13:49:15;96350.91;;;18.78;30.97
57801;BME280;43627;42.728;23.256;2022-10-17T13:51:45;96355.88;;;18.74;31.18
57801;BME280;43627;42.728;23.256;2022-10-17T13:54:39;96360.56;;;18.68;31.21
57801;BME280;43627;42.728;23.256;2022-10-17T13:57:19;96336.88;;;18.81;31.60
57801;BME280;43627;42.728;23.256;2022-10-17T13:59:49;96358.09;;;18.90;30.70
57801;BME280;43627;42.728;23.256;2022-10-17T14:02:29;96353.72;;;19.04;29.92
57801;BME280;43627;42.728;23.256;2022-10-17T14:05:10;96355.59;;;18.92;31.34
57801;BME280;43627;42.728;23.256;2022-10-17T14:10:40;96361.13;;;18.72;32.95
57801;BME280;43627;42.728;23.256;2022-10-17T14:13:19;96352.06;;;18.92;32.71
57801;BME280;43627;42.728;23.256;2022-10-17T14:15:47;96366.25;;;19.20;32.72
57801;BME280;43627;42.728;23.256;2022-10-17T14:18:19;96358.72;;;19.00;32.99
57801;BME280;43627;42.728;23.256;2022-10-17T14:20:49;96373.69;;;18.93;33.51
57801;BME280;43627;42.728;23.256;2022-10-17T14:23:39;96368.78;;;18.82;33.93
57801;BME280;43627;42.728;23.256;2022-10-17T14:26:15;96366.47;;;18.61;34.41
57801;BME280;43627;42.728;23.256;2022-10-17T14:28:45;96351.56;;;18.38;34.74
57801;BME280;43627;42.728;23.256;2022-10-17T14:33:52;96362.47;;;17.97;35.65
57801;BME280;43627;42.728;23.256;2022-10-17T14:36:28;96358.47;;;18.13;35.87
57801;BME280;43627;42.728;23.256;2022-10-17T14:38:56;96377.88;;;18.18;36.05
57801;BME280;43627;42.728;23.256;2022-10-17T14:41:29;96358.47;;;17.98;36.63
57801;BME280;43627;42.728;23.256;2022-10-17T14:46:46;96360.91;;;17.37;37.63
57801;BME280;43627;42.728;23.256;2022-10-17T14:49:21;96376.97;;;17.38;38.04
57801;BME280;43627;42.728;23.256;2022-10-17T14:52:10;96382.00;;;17.40;38.35